Time;durP1;ratioP1;P1;durP2;ratioP2;P2;SDS_P1;SDS_P2;PMS_P1;PMS_P2;Temp;Humidity;BMP_temperature;BMP_pressure;BME280_temperature;BME280_humidity;BME280_pressure;Samples;Min_cycle;Max_cycle;Signal;HPM_P1;HPM_P2
2023/12/14 00:00:48;;;;;;;11.83;4.90;;;11.40;99.90;;;;;;4999553;28;20426;-22
2023/12/14 00:03:14;;;;;;;12.35;5.07;;;11.40;99.90;;;;;;5013720;28;20022;-22
2023/12/14 00:05:40;;;;;;;13.68;5.18;;;11.40;99.90;;;;;;5007941;28;20060;-22
2023/12/14 00:08:06;;;;;;;16.23;5.67;;;11.40;99.90;;;;;;5003287;28;20040;-22
2023/12/14 00:10:32;;;;;;;16.17;5.72;;;11.40;99.90;;;;;;4982259;28;20029;-22
2023/12/14 00:12:57;;;;;;;18.00;6.03;;;11.40;99.90;;;;;;4986588;28;20549;-22
2023/12/14 00:15:23;;;;;;;17.27;6.25;;;11.40;99.90;;;;;;5009517;28;20025;-22
2023/12/14 00:17:49;;;;;;;14.63;5.60;;;11.40;99.90;;;;;;4996632;28;20037;-22
2023/12/14 00:20:14;;;;;;;15.40;5.32;;;11.40;99.90;;;;;;4991812;28;20037;-22
2023/12/14 00:22:40;;;;;;;15.88;5.30;;;11.40;99.90;;;;;;4999752;28;20029;-22
2023/12/14 00:25:06;;;;;;;16.03;6.00;;;11.40;99.90;;;;;;4972435;28;20068;-22
2023/12/14 00:27:32;;;;;;;14.25;5.10;;;11.40;99.90;;;;;;5018322;28;20139;-22
2023/12/14 00:29:58;;;;;;;15.77;5.27;;;11.40;99.90;;;;;;4996205;28;20398;-22
2023/12/14 00:32:24;;;;;;;13.82;5.65;;;11.40;99.90;;;;;;4983717;28;20385;-22
2023/12/14 00:34:49;;;;;;;14.93;5.45;;;11.40;99.90;;;;;;5027523;28;20494;-22
2023/12/14 00:37:15;;;;;;;15.93;5.07;;;11.40;99.90;;;;;;5023635;28;20547;-22
2023/12/14 00:39:41;;;;;;;15.73;5.80;;;11.40;99.90;;;;;;5019516;28;20482;-22
2023/12/14 00:42:07;;;;;;;15.47;5.70;;;11.40;99.90;;;;;;5016037;28;20021;-20
2023/12/14 00:44:33;;;;;;;15.25;5.28;;;11.40;99.90;;;;;;4983765;28;20028;-19
2023/12/14 00:47:00;;;;;;;13.60;5.40;;;11.40;99.90;;;;;;5027662;28;20025;-20
2023/12/14 00:49:27;;;;;;;15.70;5.37;;;11.40;99.90;;;;;;5015479;28;20561;-19
2023/12/14 00:51:53;;;;;;;13.18;5.38;;;11.40;99.90;;;;;;5017160;28;20052;-20
2023/12/14 00:54:19;;;;;;;15.50;5.00;;;11.40;99.90;;;;;;5018087;28;20837;-19
2023/12/14 00:56:45;;;;;;;16.27;5.60;;;11.40;99.90;;;;;;5010985;28;20080;-19
2023/12/14 00:59:11;;;;;;;14.93;5.38;;;11.40;99.90;;;;;;4999527;28;27851;-19
2023/12/14 01:01:36;;;;;;;15.93;5.47;;;11.40;99.90;;;;;;5025805;28;20543;-19
2023/12/14 01:04:02;;;;;;;14.48;5.32;;;11.40;99.90;;;;;;5005263;28;20456;-20
2023/12/14 01:06:28;;;;;;;14.70;5.20;;;11.40;99.90;;;;;;5026240;28;20095;-19
2023/12/14 01:08:54;;;;;;;14.57;5.47;;;11.40;99.90;;;;;;5027005;28;20044;-20
2023/12/14 01:11:19;;;;;;;16.60;5.72;;;11.30;99.90;;;;;;4988245;28;20053;-19
2023/12/14 01:13:45;;;;;;;15.67;5.53;;;11.30;99.90;;;;;;5028312;28;20033;-19
2023/12/14 01:16:11;;;;;;;11.38;4.70;;;11.30;99.90;;;;;;4964302;28;20037;-19
2023/12/14 01:18:37;;;;;;;12.70;5.23;;;11.30;99.90;;;;;;5001105;28;20059;-19
2023/12/14 01:21:03;;;;;;;16.42;5.28;;;11.20;99.90;;;;;;5016293;28;20094;-20
2023/12/14 01:23:28;;;;;;;11.87;4.57;;;11.20;99.90;;;;;;5029250;28;20035;-19
2023/12/14 01:25:54;;;;;;;11.63;4.78;;;11.20;99.90;;;;;;5019176;28;20051;-20
2023/12/14 01:28:20;;;;;;;12.70;4.57;;;11.10;99.90;;;;;;5007225;28;20021;-20
2023/12/14 01:30:46;;;;;;;11.77;4.30;;;11.10;99.90;;;;;;4980398;28;20673;-19
2023/12/14 01:33:12;;;;;;;12.90;4.68;;;11.00;99.90;;;;;;5027184;28;20040;-19
2023/12/14 01:35:37;;;;;;;13.10;4.15;;;11.00;99.90;;;;;;4987060;28;20093;-20
2023/12/14 01:38:03;;;;;;;12.77;4.87;;;10.90;99.90;;;;;;5026285;28;20056;-20
2023/12/14 01:40:29;;;;;;;11.43;4.40;;;10.90;99.90;;;;;;4989530;28;20041;-19
2023/12/14 01:43:07;;;;;;;10.57;3.63;;;10.90;99.90;;;;;;5026620;28;20034;-21
2023/12/14 01:45:33;;;;;;;12.90;4.63;;;10.80;99.90;;;;;;4982342;28;20072;-19
2023/12/14 01:47:59;;;;;;;11.43;4.53;;;10.80;99.90;;;;;;5025210;28;20025;-20
2023/12/14 01:50:24;;;;;;;12.07;4.30;;;10.80;99.90;;;;;;5021990;28;20278;-20
2023/12/14 01:52:50;;;;;;;10.80;4.23;;;10.70;99.90;;;;;;5029596;28;20035;-20
2023/12/14 01:55:16;;;;;;;12.52;4.15;;;10.70;99.90;;;;;;5007328;28;20093;-19
2023/12/14 01:57:42;;;;;;;9.48;3.88;;;10.70;99.90;;;;;;4976250;28;20067;-19
2023/12/14 02:00:31;;;;;;;10.73;4.10;;;10.70;99.90;;;;;;5032100;28;20040;-19
2023/12/14 02:02:57;;;;;;;10.18;4.07;;;10.70;99.90;;;;;;5012915;28;20161;-20
2023/12/14 02:05:22;;;;;;;10.97;4.10;;;10.70;99.90;;;;;;5030083;28;20021;-19
2023/12/14 02:07:49;;;;;;;10.48;4.50;;;10.60;99.90;;;;;;5005361;28;20094;-19
2023/12/14 02:10:15;;;;;;;10.38;3.65;;;10.60;99.90;;;;;;5009624;28;20211;-19
2023/12/14 02:12:41;;;;;;;9.40;3.60;;;10.60;99.90;;;;;;5020683;28;20577;-19
2023/12/14 02:15:07;;;;;;;11.20;4.00;;;10.60;99.90;;;;;;5010088;28;20499;-20
2023/12/14 02:17:32;;;;;;;9.20;3.50;;;10.60;99.90;;;;;;4967025;28;20410;-19
2023/12/14 02:20:00;;;;;;;9.82;3.92;;;10.50;99.90;;;;;;5027659;28;20525;-20
2023/12/14 02:22:26;;;;;;;10.82;3.65;;;10.50;99.90;;;;;;5020327;28;20258;-19
2023/12/14 02:24:52;;;;;;;9.83;4.10;;;10.50;99.90;;;;;;5013327;28;20080;-21
2023/12/14 02:27:17;;;;;;;10.07;3.88;;;10.50;99.90;;;;;;5006082;28;20762;-19
2023/12/14 02:29:43;;;;;;;10.47;4.10;;;10.50;99.90;;;;;;5031675;28;20094;-20
2023/12/14 02:32:09;;;;;;;10.82;3.80;;;10.40;99.90;;;;;;5011921;28;20033;-19
2023/12/14 02:34:35;;;;;;;11.37;4.07;;;10.40;99.90;;;;;;5031212;28;20025;-19
2023/12/14 02:37:00;;;;;;;9.75;3.80;;;10.40;99.90;;;;;;5019496;28;20030;-20
2023/12/14 02:39:26;;;;;;;10.47;3.77;;;10.40;99.90;;;;;;5001145;28;20044;-19
2023/12/14 02:41:52;;;;;;;10.52;4.10;;;10.40;99.90;;;;;;5025194;28;20458;-20
2023/12/14 02:44:18;;;;;;;10.77;4.13;;;10.40;99.90;;;;;;4998064;28;20079;-20
2023/12/14 02:46:43;;;;;;;11.45;4.10;;;10.30;99.90;;;;;;5022478;28;20297;-19
2023/12/14 02:49:09;;;;;;;8.97;3.43;;;10.40;99.90;;;;;;5013896;28;20029;-20
2023/12/14 02:51:38;;;;;;;8.80;3.70;;;10.30;99.90;;;;;;5006379;28;20250;-19
2023/12/14 02:54:04;;;;;;;9.45;3.63;;;10.30;99.90;;;;;;5030902;28;20487;-20
2023/12/14 02:56:29;;;;;;;11.07;3.87;;;10.30;99.90;;;;;;4993532;28;20033;-19
2023/12/14 02:58:55;;;;;;;10.10;3.72;;;10.30;99.90;;;;;;5017565;28;20088;-20
2023/12/14 03:01:21;;;;;;;10.10;3.95;;;10.30;99.90;;;;;;5018958;28;20039;-20
2023/12/14 03:03:47;;;;;;;8.73;3.83;;;10.30;99.90;;;;;;4981149;28;20037;-22
2023/12/14 03:06:14;;;;;;;9.45;3.40;;;10.30;99.90;;;;;;5028387;28;20029;-22
2023/12/14 03:08:39;;;;;;;9.23;3.38;;;10.30;99.90;;;;;;5019997;28;20229;-22
2023/12/14 03:11:05;;;;;;;10.63;3.67;;;10.30;99.90;;;;;;5010654;28;20490;-22
2023/12/14 03:13:31;;;;;;;9.32;3.50;;;10.30;99.90;;;;;;5014807;28;20619;-22
2023/12/14 03:15:57;;;;;;;8.55;3.50;;;10.20;99.90;;;;;;5007583;28;20481;-22
2023/12/14 03:18:22;;;;;;;7.90;3.30;;;10.30;99.90;;;;;;4997229;28;20132;-22
2023/12/14 03:20:48;;;;;;;9.85;3.40;;;10.30;99.90;;;;;;5024742;28;20017;-22
2023/12/14 03:23:14;;;;;;;8.38;3.45;;;10.30;99.90;;;;;;5018633;28;20028;-22
2023/12/14 03:25:40;;;;;;;9.60;3.70;;;10.30;99.90;;;;;;5028209;28;20346;-22
2023/12/14 03:28:06;;;;;;;7.63;3.63;;;10.30;99.90;;;;;;5031293;28;20028;-23
2023/12/14 03:30:31;;;;;;;9.43;3.50;;;10.20;99.90;;;;;;4992469;28;20067;-22
2023/12/14 03:32:57;;;;;;;8.68;3.60;;;10.10;99.90;;;;;;5019056;28;20477;-22
2023/12/14 03:35:23;;;;;;;8.20;3.50;;;10.20;99.90;;;;;;4994893;28;20496;-22
2023/12/14 03:37:49;;;;;;;8.23;3.95;;;10.10;99.90;;;;;;5021532;28;20090;-22
2023/12/14 03:40:15;;;;;;;7.15;3.30;;;10.10;99.90;;;;;;5030523;28;20379;-22
2023/12/14 03:42:41;;;;;;;7.70;3.30;;;10.00;99.90;;;;;;5013395;28;20702;-23
2023/12/14 03:45:07;;;;;;;6.55;3.03;;;10.00;99.90;;;;;;5017414;28;20438;-22
2023/12/14 03:47:33;;;;;;;7.53;3.30;;;10.00;99.90;;;;;;5023037;28;20479;-22
2023/12/14 03:49:58;;;;;;;5.90;2.70;;;9.90;99.90;;;;;;5015024;28;20025;-22
2023/12/14 03:52:25;;;;;;;9.48;3.72;;;9.90;99.90;;;;;;5024647;28;20027;-22
2023/12/14 03:54:51;;;;;;;7.33;3.00;;;9.90;99.90;;;;;;5018097;28;20028;-22
2023/12/14 03:57:17;;;;;;;7.00;3.10;;;9.80;99.90;;;;;;5028983;28;20398;-22
2023/12/14 03:59:42;;;;;;;8.00;3.40;;;9.90;99.90;;;;;;4991411;28;20100;-22
2023/12/14 04:02:08;;;;;;;9.20;3.78;;;9.90;99.90;;;;;;5018195;28;20025;-22
2023/12/14 04:04:34;;;;;;;8.00;3.57;;;9.90;99.90;;;;;;5005451;28;21065;-22
2023/12/14 04:06:59;;;;;;;7.95;3.65;;;9.80;99.90;;;;;;5026598;28;20502;-22
2023/12/14 04:09:25;;;;;;;8.03;4.00;;;9.80;99.90;;;;;;5016124;28;20030;-22
2023/12/14 04:11:51;;;;;;;7.03;3.13;;;9.70;99.90;;;;;;5029251;28;20013;-22
2023/12/14 04:14:17;;;;;;;8.20;3.40;;;9.70;99.90;;;;;;5026103;28;20064;-20
2023/12/14 04:16:43;;;;;;;7.20;3.40;;;9.70;99.90;;;;;;5019784;28;20056;-19
2023/12/14 04:19:10;;;;;;;7.68;3.50;;;9.70;99.90;;;;;;4974323;28;20120;-20
2023/12/14 04:21:36;;;;;;;7.77;3.10;;;9.70;99.90;;;;;;5010851;28;20111;-20
2023/12/14 04:24:03;;;;;;;7.82;3.55;;;9.60;99.90;;;;;;5029946;28;20037;-20
2023/12/14 04:26:29;;;;;;;9.15;3.65;;;9.60;99.90;;;;;;5018475;28;20083;-20
2023/12/14 04:28:54;;;;;;;7.43;3.50;;;9.60;99.90;;;;;;5029537;28;20033;-19
2023/12/14 04:31:20;;;;;;;6.63;3.60;;;9.60;99.90;;;;;;4989569;28;20040;-20
2023/12/14 04:33:46;;;;;;;6.72;3.35;;;9.60;99.90;;;;;;5020486;28;20481;-19
2023/12/14 04:36:12;;;;;;;7.53;3.87;;;9.60;99.90;;;;;;5013057;28;20074;-20
2023/12/14 04:38:37;;;;;;;7.95;3.65;;;9.60;99.90;;;;;;5009874;28;20134;-19
2023/12/14 04:41:03;;;;;;;7.00;3.43;;;9.60;99.90;;;;;;4992378;28;20033;-19
2023/12/14 04:43:30;;;;;;;7.00;3.67;;;9.60;99.90;;;;;;5026814;28;20611;-19
2023/12/14 04:45:56;;;;;;;7.30;3.88;;;9.60;99.90;;;;;;5027448;28;20029;-18
2023/12/14 04:48:22;;;;;;;7.33;4.00;;;9.60;99.90;;;;;;5015935;28;20049;-20
2023/12/14 04:50:47;;;;;;;7.90;3.58;;;9.60;99.90;;;;;;5005326;28;20022;-19
2023/12/14 04:53:14;;;;;;;7.40;3.47;;;9.50;99.90;;;;;;4994143;28;20043;-20
2023/12/14 04:55:39;;;;;;;8.23;3.92;;;9.60;99.90;;;;;;5016166;28;20103;-20
2023/12/14 04:58:05;;;;;;;6.87;3.47;;;9.50;99.90;;;;;;5028404;28;20167;-19
2023/12/14 05:00:31;;;;;;;7.35;3.80;;;9.60;99.90;;;;;;5008029;28;20052;-20
2023/12/14 05:02:57;;;;;;;7.03;3.60;;;9.50;99.90;;;;;;5016982;28;20049;-19
2023/12/14 05:05:23;;;;;;;7.82;3.80;;;9.60;99.90;;;;;;4995038;28;20040;-20
2023/12/14 05:07:49;;;;;;;7.60;3.45;;;9.60;99.90;;;;;;4970327;28;20036;-19
2023/12/14 05:10:14;;;;;;;8.03;3.90;;;9.60;99.90;;;;;;5031451;28;20092;-20
2023/12/14 05:12:40;;;;;;;8.15;3.85;;;9.60;99.90;;;;;;5021371;28;20086;-19
2023/12/14 05:15:07;;;;;;;7.73;3.63;;;9.60;99.90;;;;;;5013450;28;20029;-19
2023/12/14 05:17:34;;;;;;;8.68;4.10;;;9.50;99.90;;;;;;5009252;28;20459;-20
2023/12/14 05:20:00;;;;;;;8.43;3.50;;;9.60;99.90;;;;;;5022800;28;20025;-19
2023/12/14 05:22:26;;;;;;;8.25;3.80;;;9.50;99.90;;;;;;5010507;28;20029;-20
2023/12/14 05:24:52;;;;;;;9.27;4.40;;;9.50;99.90;;;;;;5006043;28;20029;-19
2023/12/14 05:27:17;;;;;;;7.45;3.78;;;9.60;99.90;;;;;;5018115;28;20692;-20
2023/12/14 05:29:43;;;;;;;7.00;3.57;;;9.60;99.90;;;;;;5028831;28;20353;-20
2023/12/14 05:32:09;;;;;;;8.15;3.80;;;9.50;99.90;;;;;;5015461;28;20098;-20
2023/12/14 05:34:34;;;;;;;6.50;3.17;;;9.50;99.90;;;;;;5030772;28;20358;-19
2023/12/14 05:37:00;;;;;;;7.50;3.30;;;9.50;99.90;;;;;;5023537;28;20124;-19
2023/12/14 05:39:26;;;;;;;7.57;3.50;;;9.50;99.90;;;;;;5013902;28;20025;-20
2023/12/14 05:41:52;;;;;;;6.88;3.53;;;9.60;99.90;;;;;;5016523;28;20030;-19
2023/12/14 05:44:18;;;;;;;8.57;3.47;;;9.50;99.90;;;;;;5019577;28;20118;-20
2023/12/14 05:46:44;;;;;;;7.00;3.43;;;9.50;99.90;;;;;;5031110;28;20203;-19
2023/12/14 05:49:09;;;;;;;7.57;3.55;;;9.50;99.90;;;;;;5033135;28;20091;-19
2023/12/14 05:51:36;;;;;;;7.87;4.03;;;9.50;99.90;;;;;;5018666;28;20029;-19
2023/12/14 05:54:02;;;;;;;6.80;3.50;;;9.50;99.90;;;;;;5017305;28;20112;-19
2023/12/14 05:56:29;;;;;;;8.38;3.38;;;9.50;99.90;;;;;;5027607;28;20469;-20
2023/12/14 05:58:55;;;;;;;8.03;3.60;;;9.50;99.90;;;;;;4987636;28;20422;-19
2023/12/14 06:01:21;;;;;;;8.07;3.47;;;9.50;99.90;;;;;;4994021;28;20261;-19
2023/12/14 06:03:46;;;;;;;8.00;3.70;;;9.50;99.90;;;;;;5031442;28;20025;-19
2023/12/14 06:06:15;;;;;;;8.75;3.90;;;9.50;99.90;;;;;;5016034;28;20698;-20
2023/12/14 06:08:41;;;;;;;8.03;3.87;;;9.50;99.90;;;;;;5005703;28;20039;-19
2023/12/14 06:11:07;;;;;;;8.63;3.70;;;9.50;99.90;;;;;;5010268;28;20242;-19
2023/12/14 06:13:33;;;;;;;6.82;3.28;;;9.50;99.90;;;;;;5018247;28;20021;-19
2023/12/14 06:15:59;;;;;;;6.82;3.25;;;9.40;99.90;;;;;;5016303;28;20039;-20
2023/12/14 06:18:25;;;;;;;8.23;3.50;;;9.40;99.90;;;;;;4998536;28;20458;-20
2023/12/14 06:20:54;;;;;;;7.85;3.60;;;9.40;99.90;;;;;;5023402;28;20522;-19
2023/12/14 06:23:19;;;;;;;6.80;3.17;;;9.40;99.90;;;;;;4996254;28;20041;-20
2023/12/14 06:25:45;;;;;;;10.23;4.77;;;9.50;99.90;;;;;;5029121;28;20052;-19
2023/12/14 06:28:12;;;;;;;10.32;5.25;;;9.40;99.90;;;;;;5029880;28;20442;-20
2023/12/14 06:30:37;;;;;;;9.37;4.30;;;9.40;99.90;;;;;;5010428;28;20206;-20
2023/12/14 06:33:03;;;;;;;9.13;3.83;;;9.40;99.90;;;;;;4997461;28;20643;-22
2023/12/14 06:35:29;;;;;;;9.93;4.05;;;9.40;99.90;;;;;;5029325;28;20040;-22
2023/12/14 06:37:55;;;;;;;9.20;4.10;;;9.40;99.90;;;;;;5009450;28;20033;-22
2023/12/14 06:40:21;;;;;;;11.45;4.10;;;9.40;99.90;;;;;;4985009;28;20729;-22
2023/12/14 06:42:47;;;;;;;10.45;4.32;;;9.40;99.90;;;;;;5029293;28;20422;-22
2023/12/14 06:45:13;;;;;;;9.40;4.23;;;9.40;99.90;;;;;;5020012;28;20030;-22
2023/12/14 06:47:41;;;;;;;8.88;4.10;;;9.30;99.90;;;;;;5019446;28;20641;-22
2023/12/14 06:50:07;;;;;;;9.55;4.20;;;9.30;99.90;;;;;;5034471;28;20013;-22
2023/12/14 06:52:33;;;;;;;8.93;3.80;;;9.30;99.90;;;;;;5005010;28;20122;-22
2023/12/14 06:54:59;;;;;;;11.40;5.43;;;9.30;99.90;;;;;;5014921;28;20025;-22
2023/12/14 06:57:25;;;;;;;8.80;4.47;;;9.30;99.90;;;;;;5031313;28;20072;-22
2023/12/14 06:59:50;;;;;;;9.17;4.20;;;9.30;99.90;;;;;;5000098;28;20033;-22
2023/12/14 07:02:16;;;;;;;7.38;3.90;;;9.30;99.90;;;;;;5012916;28;20034;-22
2023/12/14 07:04:43;;;;;;;8.40;3.97;;;9.30;99.90;;;;;;5016773;28;20033;-22
2023/12/14 07:07:09;;;;;;;7.50;3.65;;;9.30;99.90;;;;;;5014395;28;20178;-22
2023/12/14 07:09:35;;;;;;;8.13;3.63;;;9.40;99.90;;;;;;5003464;28;20386;-22
2023/12/14 07:12:02;;;;;;;8.85;3.60;;;9.30;99.90;;;;;;5027451;28;20025;-22
2023/12/14 07:14:28;;;;;;;10.13;3.67;;;9.30;99.90;;;;;;5011328;28;20030;-22
2023/12/14 07:16:54;;;;;;;7.93;3.67;;;9.30;99.90;;;;;;5025281;28;20110;-22
2023/12/14 07:19:20;;;;;;;8.03;3.80;;;9.30;99.90;;;;;;5012868;28;20041;-22
2023/12/14 07:21:45;;;;;;;8.70;3.83;;;9.20;99.90;;;;;;5026581;28;20037;-22
2023/12/14 07:24:11;;;;;;;7.20;3.33;;;9.20;99.90;;;;;;5000570;28;20057;-22
2023/12/14 07:26:37;;;;;;;8.68;3.55;;;9.10;99.90;;;;;;5026843;28;20143;-22
2023/12/14 07:29:02;;;;;;;8.23;3.40;;;9.00;99.90;;;;;;5021274;28;20240;-22
2023/12/14 07:31:29;;;;;;;6.50;2.92;;;9.00;99.90;;;;;;5007255;28;20032;-22
2023/12/14 07:33:55;;;;;;;7.22;3.28;;;8.90;99.90;;;;;;5023443;28;20262;-22
2023/12/14 07:36:22;;;;;;;7.00;2.90;;;8.80;99.90;;;;;;5027194;28;20036;-22
2023/12/14 07:38:48;;;;;;;5.70;3.03;;;8.70;99.90;;;;;;5012234;28;20033;-22
2023/12/14 07:41:14;;;;;;;8.10;3.60;;;8.70;99.90;;;;;;4961141;28;20036;-22
2023/12/14 07:43:40;;;;;;;6.13;3.17;;;8.60;99.90;;;;;;5029407;28;20025;-19
2023/12/14 07:46:06;;;;;;;7.03;2.90;;;8.50;99.90;;;;;;5006899;28;20033;-20
2023/12/14 07:48:32;;;;;;;6.38;2.53;;;8.40;99.90;;;;;;4998424;28;20022;-19
2023/12/14 07:50:57;;;;;;;7.40;3.20;;;8.40;99.90;;;;;;5011309;28;20044;-20
2023/12/14 07:53:24;;;;;;;5.97;2.65;;;8.30;99.90;;;;;;5023654;28;20115;-19
2023/12/14 07:55:50;;;;;;;6.38;2.80;;;8.30;99.90;;;;;;4983856;28;20715;-20
2023/12/14 07:58:15;;;;;;;5.33;2.63;;;8.20;99.90;;;;;;5013927;28;20033;-19
2023/12/14 08:00:41;;;;;;;6.28;3.13;;;8.20;99.90;;;;;;5028315;28;20182;-19
2023/12/14 08:03:07;;;;;;;8.43;2.92;;;8.10;99.90;;;;;;5025498;28;20075;-19
2023/12/14 08:05:33;;;;;;;6.83;3.33;;;8.10;99.90;;;;;;5022732;28;20190;-19
2023/12/14 08:07:59;;;;;;;5.93;2.47;;;8.00;99.90;;;;;;4996988;28;20032;-19
2023/12/14 08:10:25;;;;;;;5.90;2.40;;;8.00;99.90;;;;;;5003917;28;20071;-20
2023/12/14 08:12:52;;;;;;;6.50;3.10;;;8.10;99.90;;;;;;5023103;28;20059;-19
2023/12/14 08:15:17;;;;;;;5.47;2.63;;;8.10;99.90;;;;;;5030174;28;20075;-20
2023/12/14 08:17:43;;;;;;;5.77;2.60;;;8.20;99.90;;;;;;5013938;28;20701;-20
2023/12/14 08:20:11;;;;;;;6.88;2.88;;;8.20;99.90;;;;;;5029834;28;20020;-19
2023/12/14 08:22:37;;;;;;;6.93;3.00;;;8.30;99.90;;;;;;5025369;28;20771;-19
2023/12/14 08:25:03;;;;;;;7.53;3.20;;;8.40;99.90;;;;;;5018827;28;20029;-20
2023/12/14 08:27:29;;;;;;;7.65;3.55;;;8.40;99.90;;;;;;4980747;28;20045;-20
2023/12/14 08:29:55;;;;;;;9.48;3.63;;;8.50;99.90;;;;;;5024541;28;20032;-19
2023/12/14 08:32:20;;;;;;;7.77;3.30;;;8.60;99.90;;;;;;5024874;28;20793;-20
2023/12/14 08:34:47;;;;;;;7.10;3.40;;;8.60;99.90;;;;;;5027177;28;20026;-19
2023/12/14 08:37:13;;;;;;;7.80;3.30;;;8.60;99.90;;;;;;5030035;28;20306;-20
2023/12/14 08:39:38;;;;;;;7.15;3.33;;;8.60;99.90;;;;;;5014014;28;20482;-19
2023/12/14 08:42:04;;;;;;;6.97;3.20;;;8.70;99.90;;;;;;4995535;28;20029;-20
2023/12/14 08:44:30;;;;;;;6.65;2.92;;;8.60;99.90;;;;;;5025351;28;20041;-20
2023/12/14 08:46:55;;;;;;;6.97;3.37;;;8.70;99.90;;;;;;5029385;28;20057;-19
2023/12/14 08:49:23;;;;;;;8.32;3.70;;;8.70;99.90;;;;;;4980914;28;20154;-20
2023/12/14 08:51:48;;;;;;;8.35;3.53;;;11.50;99.90;;;;;;5009224;28;20782;-19
2023/12/14 08:54:14;;;;;;;8.30;2.97;;;8.80;99.90;;;;;;5025725;28;20138;-20
2023/12/14 08:56:40;;;;;;;6.40;2.90;;;8.90;99.90;;;;;;4987106;28;20102;-19
2023/12/14 08:59:05;;;;;;;6.43;2.93;;;9.00;99.90;;;;;;5031398;28;20087;-19
2023/12/14 09:01:32;;;;;;;5.68;2.70;;;9.10;99.90;;;;;;5027153;28;20449;-20
2023/12/14 09:03:57;;;;;;;6.07;2.80;;;9.20;99.90;;;;;;4986483;28;20543;-19
2023/12/14 09:06:23;;;;;;;6.55;2.97;;;9.30;99.90;;;;;;5029414;28;20099;-20
2023/12/14 09:08:49;;;;;;;8.93;3.67;;;9.40;99.90;;;;;;5009494;28;20074;-19
2023/12/14 09:11:15;;;;;;;7.05;2.97;;;9.60;99.90;;;;;;5018498;28;20853;-20
2023/12/14 09:13:42;;;;;;;8.00;2.92;;;9.70;99.90;;;;;;4986785;28;20057;-19
2023/12/14 09:16:08;;;;;;;6.47;3.33;;;9.90;99.90;;;;;;5014692;28;20204;-19
2023/12/14 09:18:34;;;;;;;7.53;3.57;;;10.00;99.90;;;;;;5027695;28;20256;-19
2023/12/14 09:21:00;;;;;;;6.60;3.20;;;10.10;99.90;;;;;;4985066;28;20041;-20
2023/12/14 09:23:26;;;;;;;5.35;2.70;;;10.20;99.90;;;;;;5021566;28;20038;-20
2023/12/14 09:25:51;;;;;;;5.53;2.80;;;10.30;99.90;;;;;;5019180;28;20054;-19
2023/12/14 09:28:17;;;;;;;5.93;2.70;;;10.30;99.90;;;;;;5005345;28;20524;-20
2023/12/14 09:30:44;;;;;;;4.70;2.70;;;10.50;99.90;;;;;;5023670;28;20334;-20
2023/12/14 09:33:10;;;;;;;7.70;2.90;;;10.50;99.90;;;;;;5019899;28;20433;-20
2023/12/14 09:35:36;;;;;;;7.65;2.90;;;10.80;99.90;;;;;;5013528;28;20052;-20
2023/12/14 09:38:03;;;;;;;4.35;2.15;;;11.10;99.90;;;;;;5031262;28;20112;-20
2023/12/14 09:40:29;;;;;;;5.10;2.50;;;11.60;99.90;;;;;;5020830;28;20055;-20
2023/12/14 09:42:56;;;;;;;4.15;2.40;;;12.00;99.90;;;;;;5029628;28;20056;-20
2023/12/14 09:45:27;;;;;;;4.47;2.35;;;12.60;99.90;;;;;;5012728;28;20203;-20
2023/12/14 09:47:53;;;;;;;3.85;2.22;;;13.10;99.90;;;;;;5033754;28;20776;-20
2023/12/14 09:50:20;;;;;;;5.20;2.72;;;13.60;99.90;;;;;;5030554;28;20082;-21
2023/12/14 09:52:48;;;;;;;5.90;2.77;;;14.00;99.90;;;;;;5015043;28;20234;-20
2023/12/14 09:55:15;;;;;;;6.05;3.22;;;14.30;99.90;;;;;;5024537;28;20026;-21
2023/12/14 09:57:41;;;;;;;5.90;2.90;;;14.70;99.90;;;;;;5017584;28;20057;-20
2023/12/14 10:00:10;;;;;;;5.03;2.75;;;14.90;99.90;;;;;;5011196;28;20404;-20
2023/12/14 10:02:37;;;;;;;3.67;2.23;;;15.10;99.90;;;;;;4984030;28;20037;-20
2023/12/14 10:05:05;;;;;;;4.57;2.58;;;15.30;99.90;;;;;;4978942;28;20276;-20
2023/12/14 10:07:31;;;;;;;4.57;2.60;;;15.40;99.90;;;;;;5034487;28;20056;-20
2023/12/14 10:10:13;;;;;;;4.55;2.78;;;15.40;99.90;;;;;;5021846;28;20754;-20
2023/12/14 10:12:56;;;;;;;5.75;3.55;;;15.30;99.90;;;;;;5028131;28;20482;-21
2023/12/14 10:15:24;;;;;;;5.27;2.90;;;15.10;99.90;;;;;;5033664;28;20279;-20
2023/12/14 10:17:54;;;;;;;5.15;3.28;;;15.00;99.90;;;;;;5000690;28;20025;-21
2023/12/14 10:20:23;;;;;;;4.07;2.53;;;14.70;99.90;;;;;;5032258;28;20494;-20
2023/12/14 10:22:53;;;;;;;7.93;4.32;;;14.50;99.90;;;;;;5008448;28;20033;-21
2023/12/14 10:25:19;;;;;;;6.00;3.67;;;14.30;99.90;;;;;;5030735;28;20520;-20
2023/12/14 10:27:52;;;;;;;5.83;4.03;;;14.10;99.90;;;;;;5030056;28;20112;-21
2023/12/14 10:30:19;;;;;;;8.38;5.80;;;13.80;99.90;;;;;;5013484;28;20033;-19
2023/12/14 10:32:48;;;;;;;9.35;6.32;;;13.70;99.90;;;;;;4986503;28;20131;-21
2023/12/14 10:35:16;;;;;;;8.25;5.03;;;13.50;99.90;;;;;;5006944;28;20057;-20
2023/12/14 10:37:43;;;;;;;14.50;7.10;;;13.40;99.90;;;;;;5010230;28;20044;-20
2023/12/14 10:40:14;;;;;;;13.47;7.63;;;13.20;99.90;;;;;;5007208;28;20139;-20
2023/12/14 10:42:43;;;;;;;10.65;5.35;;;13.10;99.90;;;;;;5011164;28;20064;-21
2023/12/14 10:45:12;;;;;;;7.07;3.95;;;13.00;99.90;;;;;;5024021;28;20244;-20
2023/12/14 10:47:43;;;;;;;7.00;3.50;;;12.90;99.90;;;;;;5012891;28;20029;-20
2023/12/14 10:50:11;;;;;;;5.95;3.30;;;12.80;99.90;;;;;;5029919;28;20103;-20
2023/12/14 10:52:41;;;;;;;6.73;3.10;;;12.70;99.90;;;;;;5014818;28;20025;-20
2023/12/14 10:55:30;;;;;;;5.50;2.97;;;12.70;99.90;;;;;;5019710;28;20067;-20
2023/12/14 10:57:58;;;;;;;6.00;3.25;;;12.60;99.90;;;;;;5023133;28;20226;-19
2023/12/14 11:00:24;;;;;;;5.15;2.83;;;12.50;99.90;;;;;;5029106;28;20040;-19
2023/12/14 11:02:52;;;;;;;7.67;3.30;;;12.50;99.90;;;;;;5012323;28;20033;-21
2023/12/14 11:05:28;;;;;;;5.13;2.78;;;12.50;99.90;;;;;;5031024;28;20040;-20
2023/12/14 11:07:55;;;;;;;6.60;3.60;;;12.40;99.90;;;;;;4998169;28;20039;-21
2023/12/14 11:10:23;;;;;;;5.53;2.72;;;12.50;99.90;;;;;;4999793;28;20482;-20
2023/12/14 11:13:00;;;;;;;6.28;3.10;;;12.40;99.90;;;;;;4981724;28;20033;-21
2023/12/14 11:15:28;;;;;;;5.73;3.00;;;12.40;99.90;;;;;;4997591;28;20196;-19
2023/12/14 11:18:12;;;;;;;5.53;2.60;;;12.40;99.90;;;;;;5001899;28;20078;-19
2023/12/14 11:20:49;;;;;;;5.75;2.70;;;12.40;99.90;;;;;;5024814;28;20284;-19
2023/12/14 11:23:17;;;;;;;4.93;2.45;;;12.40;99.90;;;;;;5030596;28;20069;-20
2023/12/14 11:25:44;;;;;;;4.90;2.40;;;12.40;99.90;;;;;;5026453;28;20044;-20
2023/12/14 11:28:10;;;;;;;5.70;2.30;;;12.40;99.90;;;;;;5026042;28;20424;-20
2023/12/14 11:30:37;;;;;;;4.85;2.40;;;12.40;99.90;;;;;;5007733;28;20326;-20
2023/12/14 11:33:03;;;;;;;4.20;2.30;;;12.30;99.90;;;;;;5017114;28;20487;-20
2023/12/14 11:35:29;;;;;;;6.05;2.55;;;12.40;99.90;;;;;;4991219;28;20478;-21
2023/12/14 11:38:01;;;;;;;4.03;2.22;;;12.40;99.90;;;;;;5029717;28;20104;-20
2023/12/14 11:40:28;;;;;;;5.70;2.70;;;12.40;99.90;;;;;;5000459;28;20659;-20
2023/12/14 11:43:01;;;;;;;7.63;3.05;;;12.30;99.90;;;;;;5004445;28;20583;-20
2023/12/14 11:45:28;;;;;;;5.38;2.70;;;12.40;99.90;;;;;;5010415;28;20707;-20
2023/12/14 11:47:53;;;;;;;4.95;2.40;;;12.30;99.90;;;;;;5016000;28;20028;-21
2023/12/14 11:50:20;;;;;;;4.77;2.40;;;12.30;99.90;;;;;;4987086;28;20090;-19
2023/12/14 11:52:46;;;;;;;4.63;2.40;;;12.30;99.90;;;;;;4985475;28;20442;-20
2023/12/14 11:55:12;;;;;;;4.55;2.50;;;11.80;99.90;;;;;;5024597;28;20102;-20
2023/12/14 11:57:38;;;;;;;3.95;1.90;;;12.20;99.90;;;;;;5013191;28;20443;-19
2023/12/14 12:00:06;;;;;;;3.90;2.07;;;12.10;99.90;;;;;;5005014;28;20108;-20
2023/12/14 12:02:34;;;;;;;4.78;2.10;;;12.10;99.90;;;;;;4996649;28;20462;-20
2023/12/14 12:05:00;;;;;;;4.43;2.10;;;12.00;99.90;;;;;;5008486;28;20602;-20
2023/12/14 12:07:26;;;;;;;3.93;2.20;;;12.00;99.90;;;;;;4990808;28;20172;-20
2023/12/14 12:09:52;;;;;;;4.00;1.95;;;12.00;99.90;;;;;;5024168;28;20037;-20
2023/12/14 12:12:17;;;;;;;3.78;2.10;;;11.90;99.90;;;;;;5026531;28;20031;-20
2023/12/14 12:14:43;;;;;;;4.93;1.93;;;11.90;99.90;;;;;;4991241;28;20052;-21
2023/12/14 12:17:10;;;;;;;4.35;2.00;;;11.90;99.90;;;;;;4992837;28;20041;-19
2023/12/14 12:19:37;;;;;;;4.07;2.00;;;11.80;99.90;;;;;;5026888;28;20039;-20
2023/12/14 12:22:03;;;;;;;3.70;2.00;;;11.80;99.90;;;;;;5004555;28;20032;-19
2023/12/14 12:24:29;;;;;;;3.10;1.67;;;11.80;99.90;;;;;;5009647;28;20390;-22
2023/12/14 12:26:55;;;;;;;4.78;2.13;;;11.70;99.90;;;;;;4987616;28;21121;-22
2023/12/14 12:29:24;;;;;;;3.53;1.92;;;11.70;99.90;;;;;;5021442;28;20052;-22
2023/12/14 12:31:50;;;;;;;4.30;2.20;;;11.70;99.90;;;;;;4997659;28;20022;-22
2023/12/14 12:34:16;;;;;;;4.67;1.80;;;11.70;99.90;;;;;;5017101;28;20037;-22
2023/12/14 12:36:42;;;;;;;4.65;1.92;;;11.60;99.90;;;;;;4989865;28;20041;-22
2023/12/14 12:39:08;;;;;;;9.77;3.45;;;11.60;99.90;;;;;;4988732;28;20392;-22
2023/12/14 12:41:36;;;;;;;3.75;1.80;;;11.60;99.90;;;;;;5002877;28;20036;-22
2023/12/14 12:44:08;;;;;;;3.00;1.67;;;11.60;99.90;;;;;;4995100;28;20036;-22